Bookmark and Share
Track history (hours):
 

W. O. Watson

More information available from US FCC via Universal Licensing System and Coast Guard Vessel Documentation Center.

Last reported at 2014-Apr-18 07:04 UTC. Time now 2014-Apr-23 19:11 UTC.
Position N 30°01' W 090°50'.

Length 32 m; draft 2.8 m.

MMSI: 367329860.

NotesDate/timePositionNaut miles runAvg speedWind from/ knotsBaromVisibWave heightAir tempDewpointWater temp
2014-Apr-18 07:04N 30°01' W 090°50'3 4.1
2014-Apr-18 06:27N 29°59' W 090°50'4 4.3
2014-Apr-18 05:33N 30°01' W 090°46'4 3.8
2014-Apr-18 04:33N 30°02' W 090°42'4 3.7
2014-Apr-18 03:33N 30°02' W 090°37'4 4.4
2014-Apr-18 02:33N 30°03' W 090°32'3 3.4
2014-Apr-18 01:33N 30°02' W 090°28'3 3.3
2014-Apr-18 00:33N 29°60' W 090°26'3 3.1
2014-Apr-17 23:33N 29°57' W 090°23'1 0.6
2014-Apr-17 22:33N 29°57' W 090°23'21 1.7
2014-Apr-17 10:13N 29°54' W 089°59'0 0.0
2014-Apr-17 08:29N 29°54' W 089°59'54 1.3
2014-Apr-15 14:23N 29°34' W 090°57'5 2.9
2014-Apr-15 12:34N 29°37' W 091°01'3 2.7
2014-Apr-15 11:34N 29°38' W 091°04'0 0.0
2014-Apr-15 10:34N 29°38' W 091°04'0 0.0
2014-Apr-15 09:34N 29°38' W 091°04'0 0.0
2014-Apr-15 08:34N 29°38' W 091°04'0 0.0
2014-Apr-15 07:34N 29°38' W 091°04'0 0.0
2014-Apr-15 06:34N 29°38' W 091°04'0 0.0
2014-Apr-15 05:34N 29°38' W 091°04'0 0.0
2014-Apr-15 03:34N 29°38' W 091°04'3 3.3
2014-Apr-15 02:34N 29°39' W 091°08'3 3.3
2014-Apr-15 01:34N 29°41' W 091°11'3 3.0
2014-Apr-15 00:34N 29°40' W 091°14'3 3.4
2014-Apr-14 23:34N 29°39' W 091°18'5 4.6
2014-Apr-14 22:34N 29°39' W 091°23'5 5.1
2014-Apr-14 21:32N 29°41' W 091°29'4 4.5
2014-Apr-14 20:34N 29°43' W 091°33'  

Dump ship's entire track history

sailing weather and tide predictions

W. O. Watson — WDE2805 — position and weather